createdAt,value
2018-06-25T00:01:30.949Z,17.00
2018-06-25T00:03:58.916Z,16.17
2018-06-25T00:06:26.937Z,21.83
2018-06-25T00:08:54.974Z,11.07
2018-06-25T00:11:23.065Z,13.97
2018-06-25T00:13:51.073Z,15.43
2018-06-25T00:16:19.093Z,11.47
2018-06-25T00:18:47.088Z,9.53
2018-06-25T00:21:15.082Z,17.87
2018-06-25T00:23:43.085Z,16.80
2018-06-25T00:26:11.124Z,9.53
2018-06-25T00:28:39.176Z,20.87
2018-06-25T00:31:07.197Z,13.40
2018-06-25T00:33:35.187Z,17.60
2018-06-25T00:36:03.188Z,16.53
2018-06-25T00:38:31.194Z,22.57
2018-06-25T00:40:59.184Z,14.70
2018-06-25T00:43:27.196Z,12.97
2018-06-25T00:45:55.197Z,25.23
2018-06-25T00:48:23.196Z,14.93
2018-06-25T00:50:51.176Z,15.00
2018-06-25T00:53:19.177Z,22.13
2018-06-25T00:55:47.223Z,16.00
2018-06-25T00:58:15.266Z,13.10
2018-06-25T01:00:43.236Z,29.03
2018-06-25T01:03:11.256Z,12.17
2018-06-25T01:05:39.258Z,15.97
2018-06-25T01:08:07.305Z,19.50
2018-06-25T01:10:35.296Z,14.27
2018-06-25T01:13:03.313Z,14.00
2018-06-25T01:15:31.308Z,17.80
2018-06-25T01:17:59.308Z,19.57
2018-06-25T01:20:27.968Z,16.30
2018-06-25T01:22:55.965Z,16.70
2018-06-25T01:25:23.952Z,20.53
2018-06-25T01:27:51.968Z,15.93
2018-06-25T01:30:19.965Z,15.43
2018-06-25T01:32:47.980Z,13.20
2018-06-25T01:35:15.988Z,15.93
2018-06-25T01:37:44.017Z,19.40
2018-06-25T01:40:12.016Z,20.23
2018-06-25T01:42:40.001Z,10.07
2018-06-25T01:45:07.985Z,18.63
2018-06-25T01:47:35.968Z,24.20
2018-06-25T01:50:03.989Z,14.80
2018-06-25T01:52:31.992Z,17.17
2018-06-25T01:55:00.052Z,20.20
2018-06-25T01:57:28.057Z,18.63
2018-06-25T01:59:56.064Z,21.17
2018-06-25T02:02:24.044Z,25.47
2018-06-25T02:04:52.049Z,24.40
2018-06-25T02:07:20.080Z,21.30
2018-06-25T02:09:48.111Z,19.17
2018-06-25T02:12:16.102Z,18.13
2018-06-25T02:14:44.313Z,26.53
2018-06-25T02:17:12.338Z,23.70
2018-06-25T02:19:40.329Z,23.50
2018-06-25T02:22:08.312Z,20.10
2018-06-25T02:24:36.313Z,22.07
2018-06-25T02:27:04.336Z,22.70
2018-06-25T02:29:33.168Z,20.83
2018-06-25T02:32:01.183Z,22.83
2018-06-25T02:34:29.249Z,21.97
2018-06-25T02:36:57.296Z,25.77
2018-06-25T02:39:25.317Z,25.57
2018-06-25T02:41:53.310Z,27.03
2018-06-25T02:44:21.349Z,25.93
2018-06-25T02:46:49.372Z,23.00
2018-06-25T02:49:17.404Z,22.77
2018-06-25T02:51:45.381Z,20.00
2018-06-25T02:54:13.380Z,24.23
2018-06-25T02:56:41.387Z,34.57
2018-06-25T02:59:09.529Z,33.60
2018-06-25T03:01:37.470Z,24.37
2018-06-25T03:04:05.598Z,18.53
2018-06-25T03:06:33.593Z,27.80
2018-06-25T03:09:01.588Z,24.27
2018-06-25T03:11:29.577Z,22.60
2018-06-25T03:13:57.599Z,28.93
2018-06-25T03:16:25.665Z,20.80
2018-06-25T03:21:33.124Z,27.40
2018-06-25T03:24:01.129Z,28.93
2018-06-25T03:26:29.352Z,35.73
2018-06-25T03:28:57.381Z,35.43
2018-06-25T03:31:25.388Z,33.70
2018-06-25T03:33:53.413Z,35.17
2018-06-25T03:36:21.443Z,40.07
2018-06-25T03:38:49.443Z,35.33
2018-06-25T03:41:17.430Z,36.93
2018-06-25T03:43:45.481Z,34.67
2018-06-25T03:46:13.489Z,35.43
2018-06-25T03:48:41.534Z,38.40
2018-06-25T03:51:09.546Z,42.93
2018-06-25T03:53:37.552Z,35.00
2018-06-25T03:56:05.607Z,58.53
2018-06-25T03:58:33.621Z,31.43
2018-06-25T04:01:01.676Z,36.20
2018-06-25T04:03:29.656Z,42.60
2018-06-25T04:05:57.890Z,46.00
2018-06-25T04:08:25.932Z,45.13
2018-06-25T04:10:53.965Z,35.43
2018-06-25T04:13:22.058Z,38.47
2018-06-25T04:15:50.062Z,39.40
2018-06-25T04:18:18.212Z,51.57
2018-06-25T04:20:46.301Z,43.13
2018-06-25T04:23:14.278Z,36.50
2018-06-25T04:25:42.296Z,33.03
2018-06-25T04:28:10.291Z,34.97
2018-06-25T04:30:38.319Z,47.57
2018-06-25T04:33:06.300Z,47.67
2018-06-25T04:35:34.308Z,49.77
2018-06-25T04:38:02.461Z,50.50
2018-06-25T04:40:30.485Z,44.40
2018-06-25T04:42:58.473Z,35.27
2018-06-25T04:45:26.501Z,49.63
2018-06-25T04:47:54.525Z,46.00
2018-06-25T04:50:22.543Z,37.60
2018-06-25T04:52:50.546Z,35.07
2018-06-25T04:55:18.548Z,33.03
2018-06-25T04:57:46.532Z,50.63
2018-06-25T05:00:14.572Z,43.87
2018-06-25T05:02:42.619Z,32.10
2018-06-25T05:05:10.621Z,51.03
2018-06-25T05:07:38.593Z,39.83
2018-06-25T05:10:06.604Z,26.33
2018-06-25T05:12:34.581Z,39.00
2018-06-25T05:15:02.688Z,36.47
2018-06-25T05:17:30.733Z,32.20
2018-06-25T05:19:58.804Z,32.07
2018-06-25T05:22:26.839Z,25.53
2018-06-25T05:24:54.921Z,23.97
2018-06-25T05:27:23.030Z,36.20
2018-06-25T05:29:51.195Z,35.53
2018-06-25T05:32:19.225Z,29.57
2018-06-25T05:34:47.224Z,22.23
2018-06-25T05:37:15.245Z,34.30
2018-06-25T05:39:43.286Z,24.43
2018-06-25T05:42:15.464Z,31.47
2018-06-25T05:44:43.501Z,31.43
2018-06-25T05:47:11.530Z,32.90
2018-06-25T05:49:39.539Z,26.80
2018-06-25T05:52:07.716Z,26.53
2018-06-25T05:54:35.764Z,27.90
2018-06-25T05:57:03.755Z,29.40
2018-06-25T05:59:31.766Z,32.67
2018-06-25T06:01:59.773Z,29.83
2018-06-25T06:04:27.794Z,26.43
2018-06-25T06:06:55.798Z,26.43
2018-06-25T06:09:23.809Z,23.20
2018-06-25T06:11:51.844Z,27.83
2018-06-25T06:14:19.837Z,27.03
2018-06-25T06:16:47.841Z,24.00
2018-06-25T06:19:15.824Z,26.40
2018-06-25T06:21:43.826Z,33.37
2018-06-25T06:24:11.826Z,31.97
2018-06-25T06:26:39.845Z,29.73
2018-06-25T06:29:07.864Z,24.20
2018-06-25T06:31:35.916Z,25.40
2018-06-25T06:34:03.942Z,16.53
2018-06-25T06:36:31.970Z,35.10
2018-06-25T06:38:59.975Z,33.03
2018-06-25T06:41:27.993Z,16.53
2018-06-25T06:43:56.022Z,22.70
2018-06-25T06:46:24.052Z,23.70
2018-06-25T06:48:52.040Z,20.80
2018-06-25T06:51:20.045Z,20.20
2018-06-25T06:53:48.030Z,17.53
2018-06-25T06:56:16.077Z,24.30
2018-06-25T06:58:44.098Z,15.40
2018-06-25T07:01:12.114Z,18.23
2018-06-25T07:03:40.101Z,31.67
2018-06-25T07:06:08.147Z,27.20
2018-06-25T07:08:36.148Z,20.80
2018-06-25T07:11:04.469Z,24.63
2018-06-25T07:13:33.761Z,20.67
2018-06-25T07:16:01.834Z,15.17
2018-06-25T07:18:29.821Z,20.73
2018-06-25T07:20:57.804Z,25.90
2018-06-25T07:23:25.794Z,21.13
2018-06-25T07:25:53.805Z,18.33
2018-06-25T07:28:21.965Z,16.23
2018-06-25T07:30:50.020Z,17.13
2018-06-25T07:33:18.009Z,17.87
2018-06-25T07:35:46.013Z,18.43
2018-06-25T07:38:14.051Z,21.20
2018-06-25T07:40:42.045Z,16.07
2018-06-25T07:43:10.402Z,42.63
2018-06-25T07:45:39.070Z,17.43
2018-06-25T07:48:07.077Z,23.63
2018-06-25T07:50:35.065Z,12.60
2018-06-25T07:53:03.112Z,11.23
2018-06-25T07:55:31.105Z,9.70
2018-06-25T07:57:59.109Z,9.60
2018-06-25T08:00:27.090Z,12.37
2018-06-25T08:02:55.089Z,20.60
2018-06-25T08:05:23.078Z,15.80
2018-06-25T08:07:51.131Z,12.50
2018-06-25T08:10:19.210Z,20.93
2018-06-25T08:12:47.930Z,10.57
2018-06-25T08:15:15.940Z,21.17
2018-06-25T08:17:43.965Z,21.13
2018-06-25T08:20:12.105Z,28.27
2018-06-25T08:22:40.150Z,23.17
2018-06-25T08:25:08.147Z,20.37
2018-06-25T08:27:36.179Z,16.93
2018-06-25T08:30:04.807Z,17.25
2018-06-25T08:32:32.801Z,29.57
2018-06-25T08:35:00.797Z,28.17
2018-06-25T08:37:29.372Z,32.83
2018-06-25T08:39:57.385Z,17.90
2018-06-25T08:42:25.380Z,26.20
2018-06-25T08:44:53.388Z,19.60
2018-06-25T08:47:21.404Z,27.77
2018-06-25T08:49:49.412Z,21.20
2018-06-25T08:52:17.419Z,18.23
2018-06-25T08:54:45.437Z,25.93
2018-06-25T08:57:13.441Z,22.70
2018-06-25T08:59:41.424Z,20.73
2018-06-25T09:02:09.416Z,15.27
2018-06-25T09:04:37.433Z,28.63
2018-06-25T09:07:05.475Z,18.27
2018-06-25T09:09:33.545Z,19.57
2018-06-25T09:12:01.478Z,22.03
2018-06-25T09:14:29.488Z,23.83
2018-06-25T09:16:57.600Z,15.70
2018-06-25T09:19:25.606Z,11.43
2018-06-25T09:21:53.667Z,22.23
2018-06-25T09:24:21.666Z,20.60
2018-06-25T09:26:49.661Z,20.23
2018-06-25T09:29:17.665Z,15.57
2018-06-25T09:31:45.753Z,14.80
2018-06-25T09:34:19.219Z,16.67
2018-06-25T09:36:47.207Z,13.80
2018-06-25T09:39:15.298Z,24.93
2018-06-25T09:41:43.613Z,14.37
2018-06-25T09:44:11.748Z,13.27
2018-06-25T09:46:40.037Z,16.03
2018-06-25T09:49:08.049Z,13.73
2018-06-25T09:51:36.061Z,12.27
2018-06-25T09:54:04.081Z,13.83
2018-06-25T09:56:32.089Z,17.80
2018-06-25T09:59:00.106Z,22.87
2018-06-25T10:01:28.152Z,25.60
2018-06-25T10:03:56.151Z,18.87
2018-06-25T10:06:24.145Z,23.73
2018-06-25T10:08:52.175Z,32.87
2018-06-25T10:11:20.189Z,23.97
2018-06-25T10:13:48.216Z,24.47
2018-06-25T10:16:16.209Z,22.57
2018-06-25T10:18:44.249Z,20.73
2018-06-25T10:21:12.487Z,33.10
2018-06-25T10:23:40.444Z,26.03
2018-06-25T10:26:08.761Z,21.13
2018-06-25T10:28:37.295Z,16.47
2018-06-25T10:31:05.309Z,19.17
2018-06-25T10:33:33.349Z,21.63
2018-06-25T10:36:01.344Z,11.50
2018-06-25T10:38:29.385Z,11.13
2018-06-25T10:40:57.409Z,25.77
2018-06-25T10:43:25.453Z,23.67
2018-06-25T10:45:53.451Z,22.37
2018-06-25T10:48:21.432Z,20.97
2018-06-25T10:50:49.446Z,22.00
2018-06-25T10:53:17.477Z,19.50
2018-06-25T10:55:45.493Z,19.37
2018-06-25T10:58:13.568Z,24.63
2018-06-25T11:00:41.673Z,18.07
2018-06-25T11:03:09.692Z,20.00
2018-06-25T11:05:37.720Z,11.77
2018-06-25T11:08:05.795Z,12.00
2018-06-25T11:10:33.826Z,17.47
2018-06-25T11:13:01.897Z,25.33
2018-06-25T11:15:29.857Z,20.90
2018-06-25T11:17:57.864Z,19.70
2018-06-25T11:20:25.941Z,18.40
2018-06-25T11:22:53.936Z,12.93
2018-06-25T11:25:21.960Z,16.00
2018-06-25T11:27:50.024Z,19.10
2018-06-25T11:30:18.012Z,30.50
2018-06-25T11:32:47.135Z,25.30
2018-06-25T11:35:15.151Z,15.63
2018-06-25T11:37:43.256Z,16.73
2018-06-25T11:40:11.269Z,17.87
2018-06-25T11:42:39.304Z,20.87
2018-06-25T11:45:07.404Z,21.03
2018-06-25T11:47:35.440Z,15.17
2018-06-25T11:50:03.473Z,21.57
2018-06-25T11:52:31.497Z,18.33
2018-06-25T11:54:59.529Z,20.27
2018-06-25T11:57:27.536Z,23.90
2018-06-25T11:59:55.575Z,15.30
2018-06-25T12:02:23.582Z,24.97
2018-06-25T12:04:51.590Z,18.57
2018-06-25T12:07:19.756Z,24.13
2018-06-25T12:09:47.832Z,25.40
2018-06-25T12:12:15.854Z,17.40
2018-06-25T12:14:43.941Z,18.90
2018-06-25T12:17:12.043Z,15.40
2018-06-25T12:19:40.468Z,22.83
2018-06-25T12:22:08.966Z,17.00
2018-06-25T12:24:37.669Z,27.50
2018-06-25T12:27:05.796Z,17.80
2018-06-25T12:29:33.891Z,16.73
2018-06-25T12:32:02.075Z,25.70
2018-06-25T12:34:30.003Z,20.87
2018-06-25T12:36:58.140Z,21.83
2018-06-25T12:39:26.200Z,22.90
2018-06-25T12:41:54.299Z,14.23
2018-06-25T12:44:22.309Z,21.37
2018-06-25T12:46:50.336Z,16.80
2018-06-25T12:49:18.956Z,20.83
2018-06-25T12:51:46.978Z,17.97
2018-06-25T12:54:14.991Z,20.30
2018-06-25T12:56:43.052Z,13.47
2018-06-25T12:59:11.068Z,17.37
2018-06-25T13:01:39.080Z,21.93
2018-06-25T13:04:07.076Z,15.60
2018-06-25T13:06:35.082Z,17.60
2018-06-25T13:09:03.160Z,21.50
2018-06-25T13:11:31.362Z,12.40
2018-06-25T13:13:59.365Z,12.73
2018-06-25T13:16:27.376Z,13.87
2018-06-25T13:18:55.596Z,12.43
2018-06-25T13:21:24.016Z,14.33
2018-06-25T13:23:52.035Z,23.83
2018-06-25T13:26:20.118Z,18.47
2018-06-25T13:28:48.124Z,25.93
2018-06-25T13:31:16.238Z,20.13
2018-06-25T13:33:44.130Z,23.73
2018-06-25T13:36:12.133Z,20.67
2018-06-25T13:38:40.140Z,22.67
2018-06-25T13:41:08.153Z,18.47
2018-06-25T13:43:36.143Z,22.67
2018-06-25T13:46:04.212Z,13.07
2018-06-25T13:48:32.256Z,14.77
2018-06-25T13:51:00.265Z,19.90
2018-06-25T13:53:28.276Z,18.27
2018-06-25T13:55:56.285Z,19.27
2018-06-25T13:58:24.287Z,19.40
2018-06-25T14:00:52.364Z,17.63
2018-06-25T14:03:20.389Z,19.03
2018-06-25T14:05:48.505Z,23.10
2018-06-25T14:08:16.505Z,13.77
2018-06-25T14:10:44.474Z,24.20
2018-06-25T14:13:12.536Z,21.33
2018-06-25T14:15:40.560Z,27.23
2018-06-25T14:18:08.731Z,28.53
2018-06-25T14:20:36.727Z,21.97
2018-06-25T14:23:04.794Z,19.87
2018-06-25T14:25:38.103Z,31.87
2018-06-25T14:28:11.695Z,21.30
2018-06-25T14:30:45.066Z,11.33
2018-06-25T14:33:13.073Z,19.80
2018-06-25T14:35:41.068Z,19.93
2018-06-25T14:38:09.100Z,21.03
2018-06-25T14:40:37.159Z,19.97
2018-06-25T14:43:05.241Z,19.97
2018-06-25T14:45:33.241Z,12.50
2018-06-25T14:48:01.319Z,15.17
2018-06-25T14:50:29.300Z,16.57
2018-06-25T14:52:57.336Z,14.23
2018-06-25T14:55:25.399Z,23.43
2018-06-25T14:57:53.458Z,19.97
2018-06-25T15:00:22.037Z,21.33
2018-06-25T15:02:51.233Z,15.57
2018-06-25T15:05:19.264Z,14.53
2018-06-25T15:07:47.411Z,15.57
2018-06-25T15:10:15.438Z,18.80
2018-06-25T15:12:43.497Z,15.00
2018-06-25T15:15:11.505Z,21.37
2018-06-25T15:17:39.558Z,14.03
2018-06-25T15:20:07.617Z,15.73
2018-06-25T15:22:35.692Z,16.03
2018-06-25T15:25:03.716Z,17.23
2018-06-25T15:27:31.708Z,14.63
2018-06-25T15:29:59.800Z,18.90
2018-06-25T15:32:30.475Z,25.43
2018-06-25T15:34:58.649Z,16.77
2018-06-25T15:37:26.809Z,22.53
2018-06-25T15:39:54.822Z,13.83
2018-06-25T15:42:22.829Z,29.20
2018-06-25T15:44:50.879Z,15.10
2018-06-25T15:47:18.993Z,15.23
2018-06-25T15:49:47.037Z,19.40
2018-06-25T15:52:15.137Z,22.23
2018-06-25T15:54:43.192Z,18.50
2018-06-25T15:57:11.217Z,14.70
2018-06-25T15:59:39.281Z,15.10
2018-06-25T16:02:07.279Z,18.57
2018-06-25T16:04:35.285Z,23.00
2018-06-25T16:07:03.648Z,16.47
2018-06-25T16:09:31.877Z,28.47
2018-06-25T16:11:59.875Z,18.60
2018-06-25T16:14:28.277Z,25.17
2018-06-25T16:16:56.486Z,17.40
2018-06-25T16:19:24.527Z,15.50
2018-06-25T16:21:52.612Z,26.40
2018-06-25T16:24:20.658Z,21.63
2018-06-25T16:26:48.776Z,16.53
2018-06-25T16:29:16.765Z,23.13
2018-06-25T16:31:44.771Z,26.33
2018-06-25T16:34:12.951Z,16.67
2018-06-25T16:36:41.046Z,25.87
2018-06-25T16:39:11.168Z,23.63
2018-06-25T16:41:39.376Z,14.80
2018-06-25T16:44:07.613Z,17.33
2018-06-25T16:46:35.920Z,10.13
2018-06-25T16:49:04.083Z,26.57
2018-06-25T16:51:32.231Z,15.77
2018-06-25T16:54:00.244Z,21.67
2018-06-25T16:56:28.284Z,22.23
2018-06-25T16:58:56.356Z,25.93
2018-06-25T17:01:24.356Z,23.30
2018-06-25T17:03:52.336Z,21.53
2018-06-25T17:06:20.329Z,15.93
2018-06-25T17:08:48.367Z,17.60
2018-06-25T17:11:16.690Z,14.83
2018-06-25T17:13:44.685Z,16.63
2018-06-25T17:16:12.741Z,19.37
2018-06-25T17:18:40.768Z,19.23
2018-06-25T17:21:08.933Z,18.80
2018-06-25T17:23:36.955Z,17.73
2018-06-25T17:26:05.276Z,20.77
2018-06-25T17:28:33.302Z,16.83
2018-06-25T17:31:01.288Z,31.85
2018-06-25T17:33:29.276Z,17.83
2018-06-25T17:35:57.303Z,24.17
2018-06-25T17:38:25.280Z,25.17
2018-06-25T17:40:53.253Z,23.47
2018-06-25T17:43:22.340Z,12.87
2018-06-25T17:45:50.327Z,21.80
2018-06-25T17:48:18.426Z,14.33
2018-06-25T17:50:46.493Z,24.60
2018-06-25T17:53:14.521Z,20.77
2018-06-25T17:55:42.649Z,14.13
2018-06-25T17:58:10.686Z,14.93
2018-06-25T18:00:38.707Z,13.67
2018-06-25T18:03:06.737Z,13.80
2018-06-25T18:05:34.765Z,16.43
2018-06-25T18:08:02.876Z,9.80
2018-06-25T18:10:30.948Z,11.97
2018-06-25T18:12:59.617Z,17.37
2018-06-25T18:15:27.685Z,17.87
2018-06-25T18:17:55.716Z,11.47
2018-06-25T18:20:23.749Z,12.03
2018-06-25T18:22:51.779Z,21.20
2018-06-25T18:25:19.907Z,18.27
2018-06-25T18:27:47.974Z,14.87
2018-06-25T18:30:16.026Z,13.40
2018-06-25T18:32:44.048Z,14.10
2018-06-25T18:35:12.038Z,13.20
2018-06-25T18:37:40.115Z,14.50
2018-06-25T18:40:08.581Z,11.43
2018-06-25T18:42:36.648Z,15.27
2018-06-25T18:45:04.953Z,18.47
2018-06-25T18:47:33.040Z,25.50
2018-06-25T18:50:01.165Z,20.77
2018-06-25T18:52:29.165Z,20.93
2018-06-25T18:54:57.165Z,15.63
2018-06-25T18:57:25.261Z,25.30
2018-06-25T18:59:53.442Z,28.87
2018-06-25T19:02:21.512Z,20.75
2018-06-25T19:04:49.585Z,18.33
2018-06-25T19:07:17.697Z,22.20
2018-06-25T19:09:45.748Z,18.70
2018-06-25T19:12:13.845Z,22.83
2018-06-25T19:14:41.997Z,32.27
2018-06-25T19:17:09.997Z,23.20
2018-06-25T19:19:38.006Z,17.40
2018-06-25T19:22:06.236Z,15.27
2018-06-25T19:24:34.253Z,17.50
2018-06-25T19:27:02.318Z,19.70
2018-06-25T19:29:30.341Z,18.67
2018-06-25T19:31:58.325Z,29.30
2018-06-25T19:34:26.318Z,28.70
2018-06-25T19:36:54.397Z,26.73
2018-06-25T19:39:22.417Z,16.67
2018-06-25T19:41:50.417Z,22.90
2018-06-25T19:44:18.426Z,20.67
2018-06-25T19:46:46.429Z,34.00
2018-06-25T19:49:14.459Z,23.27
2018-06-25T19:51:42.534Z,18.40
2018-06-25T19:54:10.609Z,35.67
2018-06-25T19:56:39.711Z,24.57
2018-06-25T19:59:07.709Z,24.23
2018-06-25T20:01:35.827Z,30.13
2018-06-25T20:04:03.818Z,25.53
2018-06-25T20:06:31.833Z,22.63
2018-06-25T20:08:59.933Z,23.07
2018-06-25T20:11:28.005Z,16.87
2018-06-25T20:13:56.009Z,12.67
2018-06-25T20:16:24.009Z,19.17
2018-06-25T20:18:52.156Z,26.27
2018-06-25T20:21:20.160Z,20.80
2018-06-25T20:23:48.155Z,17.47
2018-06-25T20:26:16.220Z,18.97
2018-06-25T20:28:44.229Z,21.90
2018-06-25T20:31:12.270Z,14.30
2018-06-25T20:33:40.441Z,21.40
2018-06-25T20:36:08.452Z,21.60
2018-06-25T20:38:36.455Z,17.47
2018-06-25T20:41:04.496Z,18.03
2018-06-25T20:43:32.497Z,17.33
2018-06-25T20:46:00.639Z,25.90
2018-06-25T20:48:28.668Z,25.17
2018-06-25T20:50:56.737Z,20.63
2018-06-25T20:53:24.934Z,18.13
2018-06-25T20:55:52.821Z,17.83
2018-06-25T20:58:20.858Z,16.10
2018-06-25T21:00:48.912Z,20.77
2018-06-25T21:03:16.960Z,24.77
2018-06-25T21:05:44.972Z,17.43
2018-06-25T21:08:13.005Z,27.00
2018-06-25T21:10:41.005Z,21.97
2018-06-25T21:13:08.993Z,22.00
2018-06-25T21:15:36.981Z,28.43
2018-06-25T21:18:04.972Z,20.27
2018-06-25T21:20:32.994Z,30.27
2018-06-25T21:23:00.993Z,28.40
2018-06-25T21:25:29.154Z,15.90
2018-06-25T21:27:57.104Z,24.83
2018-06-25T21:30:25.306Z,17.70
2018-06-25T21:32:53.288Z,26.93
2018-06-25T21:35:21.288Z,18.70
2018-06-25T21:37:49.264Z,24.13
2018-06-25T21:40:17.267Z,18.77
2018-06-25T21:42:45.258Z,15.83
2018-06-25T21:45:13.253Z,19.90
2018-06-25T21:47:41.345Z,18.87
2018-06-25T21:50:09.350Z,22.03
2018-06-25T21:52:37.321Z,23.57
2018-06-25T21:55:05.534Z,23.53
2018-06-25T21:57:33.597Z,20.10
2018-06-25T22:00:01.604Z,17.03
2018-06-25T22:02:29.692Z,17.37
2018-06-25T22:04:57.714Z,24.40
2018-06-25T22:07:25.711Z,16.70
2018-06-25T22:09:53.713Z,22.37
2018-06-25T22:12:21.734Z,27.67
2018-06-25T22:14:49.717Z,21.57
2018-06-25T22:17:17.704Z,22.37
2018-06-25T22:19:45.792Z,22.60
2018-06-25T22:22:13.796Z,24.10
2018-06-25T22:24:41.795Z,20.63
2018-06-25T22:27:09.862Z,23.93
2018-06-25T22:29:37.867Z,25.23
2018-06-25T22:32:05.860Z,24.33
2018-06-25T22:34:33.954Z,23.80
2018-06-25T22:37:02.996Z,16.30
2018-06-25T22:39:31.018Z,31.73
2018-06-25T22:41:59.056Z,23.50
2018-06-25T22:44:27.067Z,19.27
2018-06-25T22:46:55.608Z,32.70
2018-06-25T22:49:23.603Z,25.27
2018-06-25T22:51:51.577Z,33.77
2018-06-25T22:54:19.577Z,29.63
2018-06-25T22:56:48.624Z,20.97
2018-06-25T22:59:16.632Z,34.73
2018-06-25T23:01:44.650Z,29.50
2018-06-25T23:04:12.635Z,40.03
2018-06-25T23:06:40.638Z,50.47
2018-06-25T23:09:09.829Z,34.80
2018-06-25T23:11:37.856Z,37.00
2018-06-25T23:14:05.833Z,39.80
2018-06-25T23:16:33.893Z,33.23
2018-06-25T23:19:01.924Z,33.60
2018-06-25T23:21:29.949Z,23.57
2018-06-25T23:23:57.952Z,32.93
2018-06-25T23:26:25.973Z,28.57
2018-06-25T23:28:54.076Z,23.07
2018-06-25T23:31:22.097Z,29.90
2018-06-25T23:33:50.107Z,23.27
2018-06-25T23:36:18.114Z,26.93
2018-06-25T23:38:46.197Z,19.13
2018-06-25T23:41:14.432Z,28.47
2018-06-25T23:43:42.460Z,23.30
2018-06-25T23:46:10.540Z,22.63
2018-06-25T23:48:38.587Z,21.33
2018-06-25T23:51:06.621Z,24.73
2018-06-25T23:53:34.616Z,22.57
2018-06-25T23:56:02.625Z,22.20
2018-06-25T23:58:30.724Z,24.50
